Garrison, New York
Current Conditions -  °F | °C
As of 10:45 AM on Thursday 30 Oct 2014 (Local Time) from KSWF Reporting Station
Few Clouds Few Clouds  
Wind Chill: 11°   Ceiling: Unl
Heat Index: 11°   Visibility: 20mi
Dew Point:   Wind: 17mph
Humidity: 67%   Direction: 300°WNW
Pressure: 30"   Gusts: NA
Location:  41.38°N, 73.95°W
Report Text: KSWF 301445Z 30015KT 20SM FEW060 11/05 A3000
Loading
Personal Weather Stations






























Interactive Weather Map
Tropical Storm Tracking
New forecast layout! Learn more

10-Day Weather Forecast

Advertisements
Track Severe Weather on mobile